Coesse, Indiana
Current Conditions -  °F | °C
As of 6:54 AM on Wednesday 28 Jan 2015 (Local Time) from KFWA Reporting Station
Few Clouds Few Clouds  
Wind Chill:   Ceiling: Unl
Heat Index:   Visibility: 10mi
Dew Point:   Wind: 0mph
Humidity: 80%   Direction: NA
Pressure: 30.33"   Gusts: NA
Location:  41.1479°N, 85.4772°W
Report Text: KFWA 281154Z 00000KT 10SM FEW140 FEW200 M14/M17 A3033 RMK AO2 SLP288 4/002 I1000 I6000 T11391167 11117 21144 53011
Loading
Personal Weather Stations






























Interactive Weather Map New forecast layout! Learn more

10-Day Weather Forecast

Advertisements
Track Severe Weather on mobile